Time;durP1;ratioP1;P1;durP2;ratioP2;P2;SDS_P1;SDS_P2;PMS_P1;PMS_P2;Temp;Humidity;BMP_temperature;BMP_pressure;BME280_temperature;BME280_humidity;BME280_pressure;Samples;Min_cycle;Max_cycle;Signal;HPM_P1;HPM_P2
2024/02/01 00:01:52;;;;;;;5.57;3.10;;;;;;;7.78;45.07;102144.34;4988834;28;20062;-75
2024/02/01 00:04:20;;;;;;;5.78;2.95;;;;;;;7.79;45.36;102140.66;4986798;28;20043;-77
2024/02/01 00:06:50;;;;;;;4.80;2.90;;;;;;;7.80;45.33;102145.13;4996905;28;20078;-77
2024/02/01 00:09:20;;;;;;;4.70;2.90;;;;;;;7.82;45.43;102140.50;4988181;28;20050;-77
2024/02/01 00:11:48;;;;;;;4.38;2.97;;;;;;;7.82;45.78;102140.50;4989051;28;20125;-77
2024/02/01 00:14:16;;;;;;;5.10;3.15;;;;;;;7.84;45.52;102138.56;4989339;28;20056;-77
2024/02/01 00:16:44;;;;;;;5.75;3.33;;;;;;;7.84;45.82;102141.28;4987038;28;20034;-76
2024/02/01 00:19:13;;;;;;;4.93;3.08;;;;;;;7.86;45.66;102133.00;4989096;28;20046;-76
2024/02/01 00:21:41;;;;;;;6.25;2.90;;;;;;;7.86;45.59;102136.63;5015564;28;20489;-76
2024/02/01 00:24:09;;;;;;;8.52;3.30;;;;;;;7.88;45.70;102128.34;4987259;28;20042;-76
2024/02/01 00:26:39;;;;;;;6.38;3.58;;;;;;;7.89;46.05;102124.66;4987248;28;20042;-76
2024/02/01 00:29:07;;;;;;;4.80;2.85;;;;;;;7.88;45.79;102121.06;4988753;28;20093;-77
2024/02/01 00:31:35;;;;;;;5.63;3.05;;;;;;;7.89;45.93;102113.75;4990479;28;20757;-77
2024/02/01 00:34:03;;;;;;;5.32;3.00;;;;;;;7.91;46.13;102109.13;4984497;28;20089;-77
2024/02/01 00:36:32;;;;;;;4.82;2.90;;;;;;;7.92;46.01;102116.31;4985448;28;20073;-77
2024/02/01 00:39:00;;;;;;;7.82;3.45;;;;;;;7.94;46.19;102111.66;5015219;28;20038;-77
2024/02/01 00:41:28;;;;;;;5.97;3.28;;;;;;;7.94;46.00;102112.53;4987041;28;20045;-77
2024/02/01 00:43:58;;;;;;;5.28;3.30;;;;;;;7.96;46.28;102107.00;5000269;28;20502;-77
2024/02/01 00:46:25;;;;;;;5.95;3.63;;;;;;;7.97;46.05;102097.84;4987709;28;20100;-77
2024/02/01 00:48:53;;;;;;;6.22;3.03;;;;;;;7.98;46.28;102099.63;4989937;28;20146;-77
2024/02/01 00:51:22;;;;;;;5.88;3.38;;;;;;;7.98;46.22;102088.72;4988594;28;20461;-77
2024/02/01 00:53:50;;;;;;;6.07;3.60;;;;;;;8.00;46.62;102100.41;4986659;28;20050;-77
2024/02/01 00:56:18;;;;;;;6.22;3.20;;;;;;;7.99;46.67;102093.19;4988344;28;20049;-77
2024/02/01 00:58:46;;;;;;;6.10;3.10;;;;;;;8.00;46.33;102097.69;4981023;28;20627;-77
2024/02/01 01:01:15;;;;;;;5.30;3.22;;;;;;;8.04;46.40;102099.25;4988065;28;20172;-77
2024/02/01 01:03:43;;;;;;;6.40;3.25;;;;;;;8.03;46.51;102091.16;4986704;28;20042;-77
2024/02/01 01:06:12;;;;;;;6.65;3.67;;;;;;;8.04;47.02;102087.47;4989558;28;20121;-78
2024/02/01 01:08:41;;;;;;;5.13;3.45;;;;;;;8.04;46.84;102091.06;4992208;28;20050;-78
2024/02/01 01:11:09;;;;;;;6.72;3.63;;;;;;;8.03;47.23;102089.31;4985622;28;20038;-76
2024/02/01 01:13:37;;;;;;;6.80;3.20;;;;;;;8.04;47.06;102092.91;4988160;28;20050;-75
2024/02/01 01:16:05;;;;;;;6.30;3.25;;;;;;;8.02;47.74;102101.19;5017434;28;20129;-74
2024/02/01 01:18:34;;;;;;;6.18;3.80;;;;;;;8.02;47.64;102095.72;4984590;28;20039;-75
2024/02/01 01:21:02;;;;;;;6.72;3.80;;;;;;;8.00;47.55;102091.34;4987009;28;20042;-75
2024/02/01 01:23:30;;;;;;;5.63;3.60;;;;;;;7.98;47.60;102093.28;4986845;28;20051;-74
2024/02/01 01:25:58;;;;;;;8.25;3.85;;;;;;;7.95;47.92;102087.03;4989643;28;20126;-74
2024/02/01 01:28:26;;;;;;;5.20;3.60;;;;;;;7.94;47.88;102089.84;4986270;28;20089;-74
2024/02/01 01:30:54;;;;;;;6.63;3.70;;;;;;;7.91;48.21;102088.19;4989417;28;20129;-74
2024/02/01 01:33:22;;;;;;;6.07;3.45;;;;;;;7.90;48.46;102091.88;4989087;28;20035;-74
2024/02/01 01:35:52;;;;;;;6.18;3.97;;;;;;;7.91;48.56;102084.59;4988176;28;20413;-74
2024/02/01 01:38:20;;;;;;;6.65;3.42;;;;;;;7.88;48.58;102090.19;4988827;28;20049;-74
2024/02/01 01:40:48;;;;;;;5.50;3.15;;;;;;;7.87;48.24;102081.13;4988406;28;20125;-74
2024/02/01 01:43:16;;;;;;;7.63;3.50;;;;;;;7.88;48.83;102087.47;4989991;28;20517;-74
2024/02/01 01:45:43;;;;;;;5.78;3.45;;;;;;;7.86;48.83;102089.38;4989522;28;20161;-74
2024/02/01 01:48:12;;;;;;;6.13;3.65;;;;;;;7.84;48.86;102094.06;4992215;28;20047;-74
2024/02/01 01:50:41;;;;;;;5.10;3.22;;;;;;;7.84;48.88;102094.06;4993484;28;20042;-74
2024/02/01 01:53:11;;;;;;;5.70;3.53;;;;;;;7.83;48.91;102093.19;4991574;28;20057;-74
2024/02/01 01:55:39;;;;;;;6.03;3.55;;;;;;;7.81;49.07;102086.94;4987815;28;20492;-73
2024/02/01 01:58:07;;;;;;;5.22;3.15;;;;;;;7.81;49.37;102088.78;4991555;28;20490;-74
2024/02/01 02:00:35;;;;;;;5.85;3.38;;;;;;;7.81;49.23;102091.50;4992495;28;20500;-74
2024/02/01 02:03:04;;;;;;;6.45;3.60;;;;;;;7.80;49.27;102096.09;4986265;28;20042;-74
2024/02/01 02:05:32;;;;;;;5.10;3.42;;;;;;;7.80;49.19;102097.94;4990587;28;20142;-73
2024/02/01 02:08:00;;;;;;;7.13;3.33;;;;;;;7.80;49.47;102084.31;4992927;28;20101;-73
2024/02/01 02:10:30;;;;;;;5.57;3.22;;;;;;;7.81;49.64;102077.88;4992942;28;20062;-73
2024/02/01 02:13:00;;;;;;;6.70;3.78;;;;;;;7.79;49.57;102080.69;5019190;28;20105;-73
2024/02/01 02:15:32;;;;;;;6.25;3.63;;;;;;;7.81;50.30;102089.66;4987697;28;20031;-74
2024/02/01 02:18:00;;;;;;;6.22;3.83;;;;;;;7.76;49.96;102078.16;4986527;28;20035;-73
2024/02/01 02:20:30;;;;;;;5.05;3.45;;;;;;;7.79;50.26;102079.81;4992517;28;20513;-74
2024/02/01 02:23:00;;;;;;;5.05;3.30;;;;;;;7.79;49.92;102086.13;4992326;28;20034;-73
2024/02/01 02:25:28;;;;;;;5.20;3.33;;;;;;;7.78;49.79;102081.66;4981468;28;20467;-73
2024/02/01 02:27:56;;;;;;;6.07;3.53;;;;;;;7.77;50.28;102081.72;5014687;28;20043;-73
2024/02/01 02:30:24;;;;;;;6.15;3.40;;;;;;;7.77;50.01;102081.72;4989492;28;20073;-73
2024/02/01 02:32:53;;;;;;;5.22;3.42;;;;;;;7.77;50.38;102073.56;4991722;28;20116;-73
2024/02/01 02:35:21;;;;;;;6.18;3.50;;;;;;;7.77;50.20;102087.19;4985127;28;20065;-74
2024/02/01 02:37:51;;;;;;;5.18;3.30;;;;;;;7.79;50.17;102079.81;4985168;28;20045;-74
2024/02/01 02:40:21;;;;;;;5.90;3.25;;;;;;;7.79;50.73;102079.81;4991267;28;20502;-74
2024/02/01 02:42:50;;;;;;;5.68;3.03;;;;;;;7.77;50.61;102079.88;4991816;28;20427;-74
2024/02/01 02:45:19;;;;;;;5.03;3.22;;;;;;;7.77;50.71;102079.88;4991326;28;20072;-74
2024/02/01 02:47:48;;;;;;;6.30;3.40;;;;;;;7.77;50.65;102071.72;4991014;28;20125;-74
2024/02/01 02:50:16;;;;;;;5.78;3.83;;;;;;;7.77;50.66;102071.72;4990233;28;20200;-74
2024/02/01 02:52:45;;;;;;;6.45;3.60;;;;;;;7.78;50.64;102080.78;4986544;28;20042;-74
2024/02/01 02:55:13;;;;;;;5.90;3.60;;;;;;;7.77;50.82;102081.72;4989876;28;20406;-74
2024/02/01 02:57:43;;;;;;;4.88;3.20;;;;;;;7.80;50.79;102092.47;4985922;28;20050;-74
2024/02/01 03:00:18;;;;;;;5.47;3.58;;;;;;;7.79;51.00;102077.97;4992007;28;21006;-73
2024/02/01 03:02:48;;;;;;;6.00;3.50;;;;;;;7.78;50.98;102076.19;4987986;28;20145;-74
2024/02/01 03:05:18;;;;;;;6.13;3.20;;;;;;;7.79;51.04;102082.53;4990410;28;20100;-74
2024/02/01 03:07:46;;;;;;;4.90;3.20;;;;;;;7.80;50.94;102078.84;4989519;28;20520;-73
2024/02/01 03:10:15;;;;;;;5.32;3.17;;;;;;;7.79;51.26;102080.69;4986617;28;20380;-74
2024/02/01 03:12:45;;;;;;;4.90;3.33;;;;;;;7.81;51.46;102083.34;5022045;28;20047;-74
2024/02/01 03:15:13;;;;;;;4.78;3.03;;;;;;;7.80;51.35;102079.72;4989321;28;20042;-74
2024/02/01 03:17:41;;;;;;;5.50;3.40;;;;;;;7.80;51.41;102081.56;4989927;28;20054;-74
2024/02/01 03:20:17;;;;;;;5.38;3.45;;;;;;;7.81;51.36;102075.16;4991013;28;20042;-73
2024/02/01 03:22:46;;;;;;;5.47;3.67;;;;;;;7.81;51.11;102081.50;4988938;28;20042;-74
2024/02/01 03:25:15;;;;;;;6.60;3.55;;;;;;;7.81;51.55;102076.03;4991347;28;20076;-74
2024/02/01 03:27:43;;;;;;;6.07;3.70;;;;;;;7.81;51.70;102080.59;4989439;28;20137;-74
2024/02/01 03:30:15;;;;;;;5.25;3.70;;;;;;;7.83;51.76;102075.97;4991266;28;20129;-74
2024/02/01 03:32:45;;;;;;;5.00;3.47;;;;;;;7.82;51.52;102079.66;4988185;28;20049;-74
2024/02/01 03:35:16;;;;;;;5.63;3.25;;;;;;;7.82;51.41;102087.81;4989119;28;20130;-74
2024/02/01 03:37:44;;;;;;;5.80;3.83;;;;;;;7.81;51.50;102078.78;4991405;28;20035;-74
2024/02/01 03:40:13;;;;;;;5.00;3.40;;;;;;;7.83;51.62;102092.31;4990603;28;20121;-74
2024/02/01 03:42:41;;;;;;;5.50;3.20;;;;;;;7.83;52.06;102092.31;4985977;28;20093;-74
2024/02/01 03:45:10;;;;;;;6.20;3.97;;;;;;;7.83;51.74;102093.19;4990139;28;20038;-74
2024/02/01 03:47:39;;;;;;;4.65;3.45;;;;;;;7.85;52.08;102091.25;4990735;28;20038;-74
2024/02/01 03:50:09;;;;;;;5.22;3.55;;;;;;;7.86;51.68;102094.84;4990584;28;20042;-74
2024/02/01 03:52:38;;;;;;;5.45;3.15;;;;;;;7.85;52.08;102095.81;4986690;28;20060;-73
2024/02/01 03:55:16;;;;;;;5.53;3.65;;;;;;;7.86;52.17;102083.94;4988674;28;20058;-74
2024/02/01 03:57:44;;;;;;;5.57;3.25;;;;;;;7.85;51.94;102087.63;4989605;28;20060;-74
2024/02/01 04:00:25;;;;;;;4.85;3.35;;;;;;;7.86;52.04;102093.00;5021295;28;20521;-74
2024/02/01 04:02:56;;;;;;;5.25;3.40;;;;;;;7.87;52.59;102104.78;4983273;28;20043;-74
2024/02/01 04:05:26;;;;;;;4.93;3.72;;;;;;;7.87;52.56;102100.22;4986971;28;20053;-74
2024/02/01 04:07:55;;;;;;;5.68;3.88;;;;;;;7.86;52.53;102101.19;4986365;28;20478;-73
2024/02/01 04:10:23;;;;;;;5.80;3.60;;;;;;;7.86;52.67;102101.19;4992590;28;20138;-74
2024/02/01 04:12:51;;;;;;;5.20;3.40;;;;;;;7.87;52.83;102111.13;4985218;28;20070;-75
2024/02/01 04:15:18;;;;;;;5.47;3.85;;;;;;;7.87;52.72;102108.38;4988945;28;20133;-74
2024/02/01 04:17:49;;;;;;;5.78;3.83;;;;;;;7.88;52.75;102115.59;4989394;28;20084;-74
2024/02/01 04:20:18;;;;;;;6.25;3.60;;;;;;;7.89;52.55;102106.47;4988672;28;20057;-74
2024/02/01 04:22:49;;;;;;;5.00;3.65;;;;;;;7.88;52.65;102112.88;5011761;28;20109;-73
2024/02/01 04:25:17;;;;;;;4.70;3.38;;;;;;;7.91;52.62;102122.75;5017374;28;20089;-74
2024/02/01 04:27:49;;;;;;;4.82;3.33;;;;;;;7.89;52.70;102125.53;4989050;28;20039;-74
2024/02/01 04:30:19;;;;;;;5.28;3.50;;;;;;;7.89;52.96;102127.38;4990643;28;20035;-74
2024/02/01 04:32:48;;;;;;;5.70;3.70;;;;;;;7.92;52.90;102124.50;4985923;28;20526;-74
2024/02/01 04:35:18;;;;;;;6.97;3.65;;;;;;;7.93;53.04;102131.69;4984250;28;20050;-74
2024/02/01 04:37:52;;;;;;;5.75;3.90;;;;;;;7.94;53.15;102133.44;4989224;28;20160;-74
2024/02/01 04:40:21;;;;;;;5.70;3.67;;;;;;;7.95;52.92;102140.66;4987458;28;20065;-74
2024/02/01 04:42:51;;;;;;;6.07;3.83;;;;;;;7.95;52.80;102149.72;4987394;28;20038;-74
2024/02/01 04:45:19;;;;;;;6.50;4.10;;;;;;;7.96;52.84;102154.22;4989898;28;20042;-74
2024/02/01 04:47:47;;;;;;;5.30;3.72;;;;;;;7.96;52.92;102156.06;4988788;28;20054;-74
2024/02/01 04:50:15;;;;;;;5.13;3.60;;;;;;;7.96;53.12;102156.06;4986101;28;20042;-74
2024/02/01 04:52:45;;;;;;;5.90;3.97;;;;;;;7.99;52.88;102164.09;5020349;28;20046;-74
2024/02/01 04:55:13;;;;;;;5.05;3.90;;;;;;;7.99;53.34;102168.66;4985194;28;20038;-74
2024/02/01 04:57:41;;;;;;;5.78;3.92;;;;;;;7.99;53.09;102171.38;4989559;28;20157;-74
2024/02/01 05:00:14;;;;;;;5.35;3.67;;;;;;;8.00;53.10;102164.97;4991142;28;20453;-74
2024/02/01 05:02:42;;;;;;;5.28;3.67;;;;;;;7.98;53.13;102181.41;4988762;28;20042;-74
2024/02/01 05:05:12;;;;;;;5.40;4.10;;;;;;;8.00;53.07;102176.75;4989632;28;20510;-74
2024/02/01 05:07:40;;;;;;;5.47;3.63;;;;;;;7.99;53.03;102179.56;5015696;28;20054;-74
2024/02/01 05:10:12;;;;;;;5.05;3.60;;;;;;;8.01;53.41;102186.69;4984400;28;20054;-74
2024/02/01 05:12:41;;;;;;;5.88;4.03;;;;;;;7.99;53.43;102182.28;5015236;28;20053;-74
2024/02/01 05:15:11;;;;;;;5.88;4.07;;;;;;;8.02;53.27;102191.16;4988261;28;20108;-74
2024/02/01 05:17:40;;;;;;;7.28;4.80;;;;;;;8.01;53.20;102188.53;4988505;28;20053;-74
2024/02/01 05:20:10;;;;;;;6.00;4.18;;;;;;;8.02;53.37;102193.88;4985412;28;20425;-73
2024/02/01 05:22:38;;;;;;;5.63;4.00;;;;;;;8.02;53.75;102187.53;4988920;28;20422;-74
2024/02/01 05:25:15;;;;;;;6.25;4.30;;;;;;;8.03;53.83;102197.50;5017014;28;20078;-75
2024/02/01 05:30:25;;;;;;;6.25;4.43;;;;;;;8.04;53.54;102193.78;5033011;28;20055;-74
2024/02/01 05:32:54;;;;;;;5.30;3.85;;;;;;;8.04;53.80;102199.25;5008076;28;20582;-74
2024/02/01 05:35:28;;;;;;;6.22;4.55;;;;;;;8.05;53.82;102206.47;5011854;28;20049;-72
2024/02/01 05:37:57;;;;;;;;;;;;;;;7.79;55.87;102206.06;5007789;28;20523;-72
2024/02/01 05:40:25;;;;;;;5.68;4.07;;;;;;;8.01;53.68;102213.97;5025830;28;19921;-72
2024/02/01 05:42:53;;;;;;;6.22;4.10;;;;;;;8.05;53.95;102211.91;5001622;28;20049;-72
2024/02/01 05:45:22;;;;;;;6.75;4.55;;;;;;;8.07;53.54;102210.88;5011028;28;20095;-74
2024/02/01 05:47:52;;;;;;;6.53;4.32;;;;;;;8.11;54.17;102217.03;5019118;28;20133;-72
2024/02/01 05:50:20;;;;;;;7.13;5.10;;;;;;;8.09;54.02;102222.59;5010924;28;20535;-72
2024/02/01 05:52:48;;;;;;;7.47;4.90;;;;;;;8.11;53.76;102217.91;4990375;28;20049;-72
2024/02/01 05:55:16;;;;;;;7.55;4.90;;;;;;;8.12;53.85;102225.13;5011145;28;20108;-73
2024/02/01 05:57:44;;;;;;;6.68;4.70;;;;;;;8.14;53.96;102223.22;5008100;28;20136;-72
2024/02/01 06:00:19;;;;;;;6.95;5.13;;;;;;;8.15;53.92;102229.56;5014146;28;20041;-73
2024/02/01 06:02:47;;;;;;;7.13;5.05;;;;;;;8.16;53.95;102231.34;4988718;28;20287;-73
2024/02/01 06:05:19;;;;;;;8.45;5.28;;;;;;;8.18;54.74;102243.91;5009041;28;20041;-72
2024/02/01 06:07:46;;;;;;;8.30;5.70;;;;;;;8.17;53.92;102242.16;5009072;28;20544;-73
2024/02/01 06:10:14;;;;;;;6.82;5.03;;;;;;;8.19;53.81;102244.78;4992460;28;20050;-73
2024/02/01 06:12:42;;;;;;;7.05;5.60;;;;;;;8.20;54.21;102254.72;5007839;28;20046;-73
2024/02/01 06:15:11;;;;;;;9.50;5.63;;;;;;;8.21;54.22;102260.09;5008764;28;20065;-72
2024/02/01 06:17:40;;;;;;;8.05;5.60;;;;;;;8.22;53.88;102263.72;5007482;28;20050;-73
2024/02/01 06:20:10;;;;;;;8.90;6.30;;;;;;;8.23;54.00;102263.63;5013060;28;20054;-73
2024/02/01 06:22:40;;;;;;;7.28;5.28;;;;;;;8.25;53.83;102271.75;5007136;28;20045;-73
2024/02/01 06:25:11;;;;;;;8.02;5.80;;;;;;;8.25;53.87;102279.91;4990156;28;20096;-72
2024/02/01 06:27:40;;;;;;;9.32;5.25;;;;;;;8.23;54.30;102288.19;5004761;28;20301;-73
2024/02/01 06:30:10;;;;;;;8.02;5.57;;;;;;;8.26;53.97;102289.84;5008766;28;20121;-72
2024/02/01 06:32:40;;;;;;;10.23;5.60;;;;;;;8.25;53.98;102288.97;4993122;28;20057;-73
2024/02/01 06:35:16;;;;;;;7.40;5.47;;;;;;;8.27;53.71;102297.94;5012998;28;20121;-74
2024/02/01 06:37:52;;;;;;;8.57;5.55;;;;;;;8.27;53.83;102300.66;4998769;28;20070;-72
2024/02/01 06:43:27;;;;;;;7.82;4.90;;;;;;;8.25;53.30;102315.38;5021541;28;20049;-72
2024/02/01 06:46:01;;;;;;;8.23;5.57;;;;;;;8.23;53.65;102328.22;5011731;28;20062;-73
2024/02/01 06:48:41;;;;;;;8.93;5.10;;;;;;;8.23;53.54;102323.63;5014521;28;20103;-72
2024/02/01 06:51:21;;;;;;;8.63;4.68;;;;;;;8.22;53.47;102334.63;5020172;28;20038;-72
2024/02/01 06:53:56;;;;;;;7.68;4.70;;;;;;;8.21;53.01;102339.19;5012661;28;20045;-72
2024/02/01 06:56:48;;;;;;;6.78;4.22;;;;;;;8.20;53.35;102340.16;4999153;28;20041;-72
2024/02/01 06:59:31;;;;;;;6.95;4.32;;;;;;;8.17;52.93;102337.63;5012630;28;20057;-72
2024/02/01 07:02:11;;;;;;;7.15;4.03;;;;;;;8.17;53.15;102344.91;4992426;28;20047;-73
2024/02/01 07:04:42;;;;;;;7.78;4.25;;;;;;;8.15;53.08;102349.56;5014816;28;20072;-72
2024/02/01 07:07:26;;;;;;;7.38;4.13;;;;;;;8.15;52.94;102355.91;5002435;28;20114;-72
2024/02/01 07:09:58;;;;;;;8.65;4.43;;;;;;;8.14;52.69;102364.16;4995684;28;20042;-73
2024/02/01 07:12:42;;;;;;;8.82;3.67;;;;;;;8.12;52.95;102371.50;4991519;28;20065;-72
2024/02/01 07:15:19;;;;;;;6.00;2.95;;;;;;;8.10;52.90;102387.94;5017257;28;20042;-72
2024/02/01 07:17:58;;;;;;;5.50;2.53;;;;;;;8.11;52.25;102403.34;5010664;28;20533;-72
2024/02/01 07:20:35;;;;;;;6.10;2.03;;;;;;;8.07;51.88;102399.03;5015214;28;20509;-72
2024/02/01 07:23:33;;;;;;;5.88;1.70;;;;;;;8.05;51.24;102410.97;5015207;28;20527;-72
2024/02/01 07:26:01;;;;;;;3.92;1.75;;;;;;;8.02;50.70;102413.84;5010290;28;20068;-72
2024/02/01 07:58:53;;;;;;;7.97;2.00;;;;;;;7.52;49.70;102497.19;4991724;28;20141;-73
2024/02/01 08:01:24;;;;;;;5.38;1.75;;;;;;;7.50;49.73;102501.88;5012294;28;20046;-75
2024/02/01 08:04:12;;;;;;;5.20;1.73;;;;;;;7.47;49.80;102518.34;5013124;28;20060;-76
2024/02/01 08:09:26;;;;;;;6.82;1.85;;;;;;;7.40;49.33;102519.59;5018203;28;20048;-74
2024/02/01 08:11:54;;;;;;;8.13;1.92;;;;;;;7.38;49.31;102526.97;5019688;28;20041;-74
2024/02/01 08:14:24;;;;;;;8.18;1.92;;;;;;;7.39;49.38;102517.84;5010065;28;20049;-74
2024/02/01 08:16:52;;;;;;;6.82;1.90;;;;;;;7.35;48.95;102512.63;5010335;28;20070;-74
2024/02/01 08:19:20;;;;;;;10.00;1.90;;;;;;;7.33;48.99;102529.03;5008912;28;20070;-74
2024/02/01 08:22:08;;;;;;;6.20;1.70;;;;;;;7.30;49.29;102529.16;5001925;28;20045;-74
2024/02/01 08:24:37;;;;;;;7.20;1.85;;;;;;;7.30;49.43;102528.28;5001321;28;20137;-74
2024/02/01 08:27:05;;;;;;;7.38;1.92;;;;;;;7.30;49.17;102531.00;4997565;28;20087;-74
2024/02/01 08:29:36;;;;;;;6.25;1.77;;;;;;;7.30;49.25;102540.06;4996687;28;20112;-74
2024/02/01 08:32:06;;;;;;;7.93;1.92;;;;;;;7.28;49.31;102538.34;5014577;28;20111;-74
2024/02/01 08:34:38;;;;;;;9.40;1.95;;;;;;;7.28;48.93;102535.63;5001602;28;20096;-74
2024/02/01 08:37:09;;;;;;;8.10;1.83;;;;;;;7.28;49.09;102541.97;5013885;28;20250;-74
2024/02/01 08:39:44;;;;;;;5.68;1.88;;;;;;;7.28;49.10;102550.13;5002199;28;20092;-74
2024/02/01 08:42:13;;;;;;;5.45;1.90;;;;;;;7.29;49.27;102559.19;5012714;28;20042;-74
2024/02/01 08:44:44;;;;;;;7.90;1.90;;;;;;;7.30;48.97;102567.28;5010796;28;20069;-74
2024/02/01 08:47:13;;;;;;;5.45;2.13;;;;;;;7.30;48.84;102569.13;4993619;28;20242;-73
2024/02/01 08:49:42;;;;;;;7.97;2.25;;;;;;;7.30;49.19;102575.47;4998449;28;20042;-74
2024/02/01 08:52:13;;;;;;;6.97;1.92;;;;;;;7.30;49.14;102561.84;4994835;28;20041;-74
2024/02/01 08:54:42;;;;;;;8.52;2.60;;;;;;;7.29;49.28;102564.63;5012753;28;20437;-74
2024/02/01 08:57:16;;;;;;;8.40;1.98;;;;;;;7.30;49.32;102561.84;4992957;28;20049;-73
2024/02/01 08:59:46;;;;;;;8.50;2.10;;;;;;;7.34;49.11;102577.09;5023095;28;20053;-74
2024/02/01 09:02:18;;;;;;;9.23;2.00;;;;;;;7.34;48.88;102578.94;5010740;28;20064;-73
2024/02/01 09:04:46;;;;;;;6.43;1.60;;;;;;;7.36;48.97;102579.72;5013328;28;20153;-73
2024/02/01 09:07:15;;;;;;;8.32;2.70;;;;;;;7.39;49.02;102582.31;5018234;28;20041;-74
2024/02/01 09:09:44;;;;;;;7.05;1.85;;;;;;;7.41;49.50;102589.47;5021728;28;20046;-73
2024/02/01 09:12:16;;;;;;;7.13;1.75;;;;;;;7.44;49.34;102589.31;5012371;28;20472;-73
2024/02/01 09:14:46;;;;;;;7.15;1.90;;;;;;;7.47;49.44;102600.06;5018142;28;20051;-73
2024/02/01 09:17:14;;;;;;;7.43;1.52;;;;;;;7.51;49.29;102590.81;5013343;28;20038;-73
2024/02/01 09:19:42;;;;;;;10.27;2.10;;;;;;;7.56;49.25;102604.22;5026022;28;20050;-73
2024/02/01 09:22:10;;;;;;;6.43;1.90;;;;;;;7.61;49.23;102610.31;5018216;28;20042;-74
2024/02/01 09:24:39;;;;;;;6.85;2.25;;;;;;;7.65;49.02;102620.13;5014202;28;20504;-74
2024/02/01 09:27:06;;;;;;;8.73;2.00;;;;;;;7.70;49.27;102618.06;5017460;28;20433;-74
2024/02/01 09:29:38;;;;;;;7.28;2.15;;;;;;;7.75;49.23;102616.00;5012730;28;20045;-74
2024/02/01 09:32:07;;;;;;;7.55;2.20;;;;;;;7.81;48.95;102615.69;5002672;28;20049;-73
2024/02/01 09:34:37;;;;;;;9.98;2.40;;;;;;;7.86;49.05;102629.09;5001728;28;20060;-74
2024/02/01 09:37:05;;;;;;;10.13;2.08;;;;;;;7.90;48.74;102638.91;5019044;28;20038;-74
2024/02/01 09:39:34;;;;;;;4.15;1.63;;;;;;;7.98;48.80;102633.09;5012337;28;20122;-74
2024/02/01 09:42:11;;;;;;;5.93;1.83;;;;;;;8.05;48.92;102631.81;5022653;28;20042;-73
2024/02/01 09:44:40;;;;;;;6.35;1.85;;;;;;;8.08;48.47;102632.56;5022002;28;20046;-73
2024/02/01 09:47:09;;;;;;;7.50;2.05;;;;;;;8.15;48.53;102630.47;5021922;28;20056;-74
2024/02/01 09:49:41;;;;;;;8.20;1.98;;;;;;;8.22;48.10;102645.56;5017107;28;20038;-74
2024/02/01 09:52:10;;;;;;;7.53;2.80;;;;;;;8.23;48.72;102645.47;5017087;28;20053;-74
2024/02/01 09:54:38;;;;;;;6.93;1.95;;;;;;;8.31;48.72;102650.56;5010187;28;20054;-74
2024/02/01 09:57:14;;;;;;;8.27;2.40;;;;;;;8.36;48.51;102645.75;5015343;28;20045;-74
2024/02/01 09:59:43;;;;;;;9.38;1.88;;;;;;;8.42;48.40;102650.03;4999893;28;20508;-74
2024/02/01 10:02:13;;;;;;;9.82;2.10;;;;;;;8.48;48.08;102656.06;5019283;28;20041;-74
2024/02/01 10:04:41;;;;;;;7.93;2.50;;;;;;;8.52;48.24;102664.94;5013404;28;20042;-73
2024/02/01 10:07:10;;;;;;;10.05;2.42;;;;;;;8.58;48.06;102653.75;5017404;28;20033;-75
2024/02/01 10:09:38;;;;;;;7.40;2.00;;;;;;;8.65;48.25;102663.38;5018032;28;20037;-75
2024/02/01 10:12:08;;;;;;;7.88;1.90;;;;;;;8.70;48.11;102669.47;5015332;28;20058;-74
2024/02/01 10:14:37;;;;;;;7.53;2.28;;;;;;;8.76;48.09;102665.53;5007187;28;20064;-75
2024/02/01 10:17:06;;;;;;;8.43;2.50;;;;;;;8.81;47.95;102667.09;5000336;28;20156;-74
2024/02/01 10:19:37;;;;;;;9.50;2.58;;;;;;;8.89;47.53;102680.34;5026187;28;20462;-75
2024/02/01 10:22:08;;;;;;;9.25;2.20;;;;;;;8.91;47.79;102684.78;5011615;28;20038;-74
2024/02/01 10:24:45;;;;;;;6.30;1.90;;;;;;;8.96;47.75;102682.69;5016391;28;20042;-75
2024/02/01 10:27:14;;;;;;;9.05;2.58;;;;;;;9.01;47.64;102674.25;5007834;28;20053;-75
2024/02/01 10:29:44;;;;;;;8.02;2.13;;;;;;;9.07;47.63;102680.28;5001370;28;20068;-75
2024/02/01 10:32:14;;;;;;;7.10;1.90;;;;;;;9.12;47.02;102677.28;5017858;28;20041;-75
2024/02/01 10:34:50;;;;;;;7.88;1.77;;;;;;;9.18;46.16;102676.06;4995320;28;20053;-74
2024/02/01 10:37:20;;;;;;;7.65;2.30;;;;;;;9.21;47.25;102676.81;5012298;28;20398;-75
2024/02/01 10:40:00;;;;;;;7.72;2.22;;;;;;;9.27;46.17;102692.88;5022516;28;20390;-75
2024/02/01 10:42:31;;;;;;;8.95;2.20;;;;;;;9.31;46.36;102691.75;5019187;28;20042;-75
2024/02/01 10:45:06;;;;;;;7.15;2.35;;;;;;;9.36;45.91;102692.38;5014373;28;20058;-75
2024/02/01 10:47:42;;;;;;;9.95;2.25;;;;;;;9.38;46.60;102690.50;5018397;28;20115;-75
2024/02/01 10:50:14;;;;;;;6.72;1.90;;;;;;;9.44;45.73;102686.53;5036511;28;20054;-74
2024/02/01 10:52:43;;;;;;;10.93;2.70;;;;;;;9.45;46.06;102693.78;4999428;28;20074;-75
2024/02/01 10:55:11;;;;;;;7.45;2.28;;;;;;;9.49;45.82;102694.50;4998245;28;20561;-75
2024/02/01 10:57:42;;;;;;;8.88;2.20;;;;;;;9.52;45.67;102700.69;4998643;28;20076;-75
2024/02/01 11:00:19;;;;;;;7.13;2.05;;;;;;;9.54;45.64;102701.47;5010709;28;20049;-75
2024/02/01 11:02:52;;;;;;;8.52;2.08;;;;;;;9.55;45.46;102703.25;5019427;28;20591;-74
2024/02/01 11:05:27;;;;;;;10.48;2.17;;;;;;;9.58;43.93;102697.59;5010970;28;20675;-75
2024/02/01 11:07:55;;;;;;;7.88;2.30;;;;;;;9.55;44.94;102703.25;5018487;28;20069;-75
2024/02/01 11:10:25;;;;;;;7.45;2.00;;;;;;;9.56;45.14;102706.88;5008794;28;20134;-75
2024/02/01 11:12:54;;;;;;;6.25;1.77;;;;;;;9.55;44.75;102700.53;5012360;28;20038;-75
2024/02/01 11:15:24;;;;;;;6.70;2.05;;;;;;;9.56;44.50;102693.22;5012464;28;20038;-74
2024/02/01 11:18:00;;;;;;;8.13;1.92;;;;;;;9.52;44.51;102686.13;5014437;28;20038;-75
2024/02/01 11:20:32;;;;;;;11.45;2.50;;;;;;;9.50;43.64;102685.31;5016432;28;20042;-74
2024/02/01 11:23:06;;;;;;;8.73;2.10;;;;;;;9.47;43.38;102683.66;5015200;28;20409;-74
2024/02/01 11:25:35;;;;;;;6.55;1.77;;;;;;;9.45;44.47;102678.25;4998346;28;20707;-75
2024/02/01 11:28:11;;;;;;;7.88;2.38;;;;;;;9.43;44.33;102690.22;5023046;28;20513;-74
2024/02/01 11:30:51;;;;;;;7.43;2.17;;;;;;;9.41;43.20;102678.53;5025679;28;20096;-75
2024/02/01 11:33:34;;;;;;;7.88;2.00;;;;;;;9.35;44.09;102687.88;5015377;28;20497;-75
2024/02/01 11:36:04;;;;;;;7.78;2.08;;;;;;;9.34;43.55;102687.97;4999536;28;20460;-74
2024/02/01 11:38:32;;;;;;;9.80;2.28;;;;;;;9.30;44.16;102686.38;4994415;28;20041;-75
2024/02/01 11:41:01;;;;;;;7.80;2.28;;;;;;;9.28;43.80;102693.75;5018134;28;20509;-75
2024/02/01 11:43:29;;;;;;;6.28;1.98;;;;;;;9.23;43.54;102684.94;4997304;28;20045;-74
2024/02/01 11:45:57;;;;;;;8.75;2.20;;;;;;;9.21;43.84;102682.28;5019716;28;20069;-75
2024/02/01 11:48:26;;;;;;;7.03;1.88;;;;;;;9.18;44.35;102676.97;5018135;28;20136;-75
2024/02/01 11:50:58;;;;;;;9.27;2.53;;;;;;;9.18;44.26;102670.63;5013205;28;20060;-75
2024/02/01 11:53:28;;;;;;;8.50;1.85;;;;;;;9.18;44.01;102670.63;5021173;28;20517;-75
2024/02/01 11:55:57;;;;;;;6.65;2.00;;;;;;;9.17;44.52;102669.72;4995659;28;20050;-75
2024/02/01 11:58:31;;;;;;;6.65;1.88;;;;;;;9.19;44.50;102678.75;5019767;28;20076;-75
2024/02/01 12:00:59;;;;;;;8.13;2.30;;;;;;;9.19;44.75;102684.19;5012895;28;20386;-75
2024/02/01 12:03:47;;;;;;;7.80;1.90;;;;;;;9.25;43.53;102682.97;5024323;28;20448;-74
2024/02/01 12:06:17;;;;;;;9.75;2.03;;;;;;;9.26;44.39;102685.63;5016083;28;20042;-75
2024/02/01 12:08:47;;;;;;;8.00;2.00;;;;;;;9.29;44.19;102687.34;5015157;28;20045;-75
2024/02/01 12:11:15;;;;;;;7.53;2.25;;;;;;;9.31;44.26;102689.03;4998462;28;21028;-75
2024/02/01 12:13:47;;;;;;;6.90;2.45;;;;;;;9.31;43.91;102686.28;4998353;28;20441;-75
2024/02/01 12:16:26;;;;;;;10.15;2.15;;;;;;;9.37;42.57;102701.47;5016212;28;20052;-75
2024/02/01 12:18:54;;;;;;;8.40;1.80;;;;;;;9.34;43.89;102702.50;5020363;28;20030;-73
2024/02/01 12:21:27;;;;;;;6.93;2.00;;;;;;;9.35;43.48;102704.28;5014080;28;20445;-73
2024/02/01 12:23:58;;;;;;;9.07;2.40;;;;;;;9.34;43.52;102702.50;5008685;28;20049;-74
2024/02/01 12:26:27;;;;;;;7.38;1.85;;;;;;;9.35;43.71;102701.53;5019031;28;20045;-74
2024/02/01 12:28:57;;;;;;;6.13;1.77;;;;;;;9.36;43.88;102706.06;5008146;28;20045;-74